Terminal Aerodrome Forecast
Issued by NWS

Home | Current Version | Previous Version | Text Only | Print | Product List | Glossary On
Versions: 1 2 3 4 5 6 7 8 9 10 11 12 13 14 15 16 17 18 19 20
000
FTUS46 KPDT 210120 AAB
TAFALW
TAF AMD
KALW 210120Z 2101/2124 24010KT P6SM SCT050 BKN100
      TEMPO 2101/2105 -RA BKN050 BKN100
     FM210900 15007KT P6SM BKN070 BKN100
     FM211800 32007KT P6SM SCT070 BKN100=

USA.gov is the U.S. government's official web portal to all federal, state and local government web resources and services.